Wetterdaten: Woche 20.01.03 - 26.01.03 (KW4)
Datum Zeit Temperatur Luftfeuchte Luftdruck Regenmenge Wind Richtung Taupunkt Windchill
20.01.2003 00:00 -0.2 C 100 % 1016.4 hPa 0.0 l/m 1.3 km/h (1 Bft) O-SO -0.2 C -0.6 C
20.01.2003 01:00 -0.3 C 100 % 1016.3 hPa 0.0 l/m 2.0 km/h (1 Bft) O-SO -0.2 C -0.8 C
20.01.2003 02:00 -0.8 C 98 % 1016.0 hPa 0.0 l/m 0.6 km/h (0 Bft) O-SO -1.0 C -1.0 C
20.01.2003 03:00 -0.8 C 100 % 1016.2 hPa 0.0 l/m 1.0 km/h (0 Bft) O-SO -0.8 C -1.0 C
20.01.2003 04:00 -1.6 C 100 % 1016.4 hPa 0.0 l/m 0.0 km/h (0 Bft) - - -1.5 C -1.6 C
20.01.2003 05:00 -1.4 C 100 % 1015.9 hPa 0.0 l/m 0.0 km/h (0 Bft) - - -1.4 C -1.4 C
20.01.2003 06:00 -1.1 C 100 % 1015.5 hPa 0.0 l/m 0.0 km/h (0 Bft) - - -1.1 C -1.1 C
20.01.2003 07:00 -0.7 C 100 % 1015.4 hPa 0.0 l/m 0.0 km/h (0 Bft) - - -0.7 C -0.7 C
20.01.2003 08:00 -0.5 C 100 % 1015.4 hPa 0.0 l/m 0.0 km/h (0 Bft) - - -0.5 C -0.5 C
20.01.2003 09:00 -0.0 C 100 % 1014.7 hPa 0.0 l/m 0.0 km/h (0 Bft) - - -0.0 C -0.0 C
20.01.2003 10:00 0.8 C 100 % 1014.1 hPa 0.0 l/m 0.1 km/h (0 Bft) - - 0.8 C 0.8 C
20.01.2003 11:00 2.0 C 100 % 1013.1 hPa 0.0 l/m 0.0 km/h (0 Bft) - - 2.0 C 2.0 C
20.01.2003 12:00 3.0 C 98 % 1011.9 hPa 0.0 l/m 0.0 km/h (0 Bft) - - 2.7 C 3.0 C
20.01.2003 13:00 3.7 C 87 % 1011.2 hPa 0.0 l/m 0.4 km/h (0 Bft) W 1.7 C 3.7 C
20.01.2003 14:00 4.2 C 81 % 1010.2 hPa 0.0 l/m 4.8 km/h (1 Bft) W-NW 1.3 C 3.1 C
20.01.2003 15:00 3.9 C 84 % 1010.0 hPa 0.0 l/m 1.0 km/h (0 Bft) W-NW 1.4 C 3.8 C
20.01.2003 16:00 3.0 C 88 % 1009.2 hPa 0.0 l/m 0.9 km/h (0 Bft) SO 1.2 C 3.0 C
20.01.2003 17:00 1.1 C 93 % 1008.2 hPa 0.0 l/m 0.2 km/h (0 Bft) SO 0.1 C 1.1 C
20.01.2003 18:00 -0.2 C 98 % 1007.7 hPa 0.0 l/m 3.1 km/h (1 Bft) O-SO -0.5 C -1.0 C
20.01.2003 19:00 -0.9 C 99 % 1007.1 hPa 0.0 l/m 4.2 km/h (1 Bft) O-SO -1.0 C -2.2 C
20.01.2003 20:00 -1.2 C 99 % 1007.1 hPa 0.0 l/m 4.0 km/h (1 Bft) O-SO -1.3 C -2.4 C
20.01.2003 21:00 -0.6 C 99 % 1007.1 hPa 0.0 l/m 6.2 km/h (2 Bft) O-SO -0.7 C -2.7 C
20.01.2003 22:00 0.2 C 100 % 1006.1 hPa 0.0 l/m 4.6 km/h (1 Bft) SO 0.1 C -1.2 C
20.01.2003 23:00 0.4 C 100 % 1006.1 hPa 0.0 l/m 3.6 km/h (1 Bft) SO 0.4 C -0.6 C
21.01.2003 00:00 0.2 C 100 % 1005.8 hPa 0.0 l/m 8.8 km/h (2 Bft) SO 0.2 C -2.6 C
21.01.2003 01:00 0.1 C 99 % 1004.6 hPa 0.0 l/m 6.5 km/h (2 Bft) O-SO -0.0 C -1.8 C
21.01.2003 02:00 0.1 C 98 % 1004.1 hPa 0.0 l/m 2.1 km/h (1 Bft) O-SO -0.2 C -0.5 C
21.01.2003 03:00 -0.0 C 98 % 1003.3 hPa 0.0 l/m 1.7 km/h (1 Bft) O-SO -0.3 C -0.5 C
21.01.2003 04:00 -0.2 C 98 % 1002.2 hPa 0.0 l/m 1.6 km/h (1 Bft) O-SO -0.4 C -0.6 C
21.01.2003 05:00 -0.5 C 98 % 1001.4 hPa 0.0 l/m 0.9 km/h (0 Bft) SO -0.7 C -0.7 C
21.01.2003 06:00 -0.6 C 99 % 1000.7 hPa 0.0 l/m 1.2 km/h (1 Bft) SO -0.8 C -1.0 C
21.01.2003 07:00 -0.6 C 98 % 1000.3 hPa 0.0 l/m 0.0 km/h (0 Bft) - - -0.9 C -0.6 C
21.01.2003 08:00 -0.5 C 98 % 1000.9 hPa 0.0 l/m 0.8 km/h (0 Bft) SO -0.7 C -0.8 C
21.01.2003 09:00 -0.0 C 99 % 1000.9 hPa 0.0 l/m 3.1 km/h (1 Bft) O-SO -0.1 C -0.9 C
21.01.2003 10:00 0.8 C 97 % 999.9 hPa 0.0 l/m 1.3 km/h (1 Bft) O-SO 0.4 C 0.4 C
21.01.2003 11:00 2.1 C 89 % 998.5 hPa 0.0 l/m 0.3 km/h (0 Bft) SO 0.4 C 2.1 C
21.01.2003 12:00 1.9 C 88 % 998.0 hPa 0.0 l/m 3.1 km/h (1 Bft) W-NW 0.0 C 1.1 C
21.01.2003 13:00 1.9 C 90 % 997.8 hPa 0.0 l/m 1.3 km/h (1 Bft) SO 0.5 C 1.6 C
21.01.2003 14:00 2.0 C 95 % 998.2 hPa 1.5 l/m 2.8 km/h (1 Bft) O-SO 1.3 C 1.3 C
21.01.2003 15:00 2.6 C 97 % 998.8 hPa 1.2 l/m 5.3 km/h (1 Bft) SO 2.2 C 1.3 C
21.01.2003 16:00 2.6 C 96 % 998.2 hPa 0.6 l/m 3.9 km/h (1 Bft) SO 2.0 C 1.6 C
21.01.2003 17:00 2.1 C 96 % 997.9 hPa 0.0 l/m 2.8 km/h (1 Bft) SO 1.5 C 1.3 C
21.01.2003 18:00 1.6 C 98 % 997.8 hPa 0.0 l/m 2.1 km/h (1 Bft) O-SO 1.3 C 1.0 C
21.01.2003 19:00 0.9 C 99 % 997.8 hPa 0.0 l/m 0.0 km/h (0 Bft) - - 0.7 C 0.9 C
21.01.2003 20:00 0.3 C 99 % 997.8 hPa 0.0 l/m 1.0 km/h (0 Bft) O-SO 0.1 C 0.1 C
21.01.2003 21:00 0.1 C 100 % 997.8 hPa 0.0 l/m 2.8 km/h (1 Bft) O-SO 0.1 C -0.2 C
21.01.2003 22:00 -0.1 C 100 % 997.8 hPa 0.0 l/m 4.8 km/h (1 Bft) O-SO -0.1 C -1.2 C
21.01.2003 23:00 -0.3 C 100 % 997.8 hPa 0.0 l/m 2.8 km/h (1 Bft) O-SO -0.3 C -1.2 C
22.01.2003 00:00 -0.5 C 100 % 998.6 hPa 0.0 l/m 0.4 km/h (0 Bft) O-SO -0.5 C -0.6 C
22.01.2003 01:00 -0.2 C 100 % 998.8 hPa 0.0 l/m 0.2 km/h (0 Bft) O-SO -0.2 C -0.2 C
22.01.2003 02:00 -0.6 C 100 % 999.0 hPa 0.0 l/m 0.9 km/h (0 Bft) O-SO -0.6 C -0.9 C
22.01.2003 03:00 -0.2 C 100 % 999.8 hPa 0.0 l/m 0.0 km/h (0 Bft) - - -0.2 C -0.2 C
22.01.2003 04:00 -0.3 C 100 % 999.8 hPa 0.0 l/m 0.0 km/h (0 Bft) - - -0.3 C -0.3 C
22.01.2003 05:00 0.1 C 100 % 1000.3 hPa 0.0 l/m 0.2 km/h (0 Bft) O-SO 0.1 C 0.1 C
22.01.2003 06:00 0.8 C 100 % 1000.9 hPa 0.0 l/m 0.2 km/h (0 Bft) SO 0.8 C 0.8 C
22.01.2003 07:00 0.0 C 100 % 1001.0 hPa 0.0 l/m 0.4 km/h (0 Bft) O-SO 0.0 C -0.1 C
22.01.2003 08:00 0.2 C 100 % 1001.9 hPa 0.0 l/m 0.4 km/h (0 Bft) O-SO 0.2 C 0.1 C
22.01.2003 09:00 1.9 C 100 % 1001.9 hPa 0.0 l/m 1.5 km/h (1 Bft) SO 1.9 C 1.7 C
22.01.2003 10:00 3.9 C 100 % 1002.1 hPa 0.0 l/m 10.9 km/h (2 Bft) SO 3.9 C 1.6 C
22.01.2003 11:00 6.1 C 77 % 1002.6 hPa 0.0 l/m 10.6 km/h (2 Bft) S 2.3 C 4.1 C
22.01.2003 12:00 6.6 C 67 % 1002.9 hPa 0.0 l/m 12.8 km/h (3 Bft) S 0.8 C 4.4 C
22.01.2003 13:00 6.9 C 64 % 1003.0 hPa 0.0 l/m 8.1 km/h (2 Bft) SW 0.5 C 5.5 C
22.01.2003 14:00 6.8 C 63 % 1003.0 hPa 0.0 l/m 6.0 km/h (2 Bft) W-SW 0.3 C 5.8 C
22.01.2003 15:00 5.8 C 72 % 1003.6 hPa 0.3 l/m 7.7 km/h (2 Bft) SW 1.1 C 4.2 C
22.01.2003 16:00 4.5 C 90 % 1004.7 hPa 0.3 l/m 1.5 km/h (1 Bft) SO 3.1 C 4.3 C
22.01.2003 17:00 4.5 C 85 % 1005.0 hPa 0.0 l/m 5.3 km/h (1 Bft) S 2.3 C 3.5 C
22.01.2003 18:00 3.4 C 88 % 1005.4 hPa 0.0 l/m 0.9 km/h (0 Bft) S-SO 1.6 C 3.3 C
22.01.2003 19:00 3.2 C 91 % 1005.6 hPa 0.0 l/m 4.7 km/h (1 Bft) SO 1.9 C 2.2 C
22.01.2003 20:00 3.7 C 88 % 1006.3 hPa 0.0 l/m 1.2 km/h (1 Bft) O-SO 1.9 C 3.4 C
22.01.2003 21:00 4.2 C 86 % 1007.1 hPa 0.0 l/m 10.4 km/h (2 Bft) S-SW 1.9 C 1.9 C
22.01.2003 22:00 3.8 C 84 % 1008.1 hPa 0.0 l/m 11.0 km/h (2 Bft) S 1.4 C 1.3 C
22.01.2003 23:00 3.8 C 82 % 1008.8 hPa 0.3 l/m 5.8 km/h (2 Bft) SO 1.0 C 2.6 C
23.01.2003 00:00 3.3 C 91 % 1009.4 hPa 1.2 l/m 3.3 km/h (1 Bft) W-NW 1.9 C 2.6 C
23.01.2003 01:00 2.7 C 94 % 1010.2 hPa 0.0 l/m 2.0 km/h (1 Bft) SO 1.8 C 2.3 C
23.01.2003 02:00 2.9 C 94 % 1010.3 hPa 0.0 l/m 5.0 km/h (1 Bft) SO 2.0 C 1.7 C
23.01.2003 03:00 2.9 C 95 % 1011.3 hPa 1.8 l/m 0.3 km/h (0 Bft) SW 2.3 C 2.9 C
23.01.2003 04:00 2.7 C 97 % 1011.7 hPa 0.3 l/m 3.3 km/h (1 Bft) SO 2.3 C 2.0 C
23.01.2003 05:00 2.0 C 96 % 1012.9 hPa 0.3 l/m 3.0 km/h (1 Bft) SO 1.5 C 1.2 C
23.01.2003 06:00 1.8 C 96 % 1013.3 hPa 0.0 l/m 2.4 km/h (1 Bft) SO 1.3 C 1.2 C
23.01.2003 07:00 2.4 C 95 % 1014.3 hPa 0.0 l/m 0.6 km/h (0 Bft) W 1.8 C 2.3 C
23.01.2003 08:00 3.0 C 95 % 1015.2 hPa 0.0 l/m 12.3 km/h (3 Bft) W-NW 2.3 C 0.4 C
23.01.2003 09:00 3.5 C 93 % 1016.7 hPa 0.0 l/m 19.8 km/h (4 Bft) W-NW 2.4 C -0.8 C
23.01.2003 10:00 4.2 C 82 % 1018.0 hPa 0.0 l/m 18.4 km/h (3 Bft) W-NW 1.3 C 0.4 C
23.01.2003 11:00 4.7 C 76 % 1019.0 hPa 0.0 l/m 4.8 km/h (1 Bft) NW 0.8 C 3.8 C
23.01.2003 12:00 4.8 C 76 % 1019.6 hPa 0.0 l/m 19.1 km/h (3 Bft) W-NW 0.9 C 1.0 C
23.01.2003 13:00 4.6 C 73 % 1020.2 hPa 0.0 l/m 26.5 km/h (4 Bft) NW 0.1 C -0.1 C
23.01.2003 14:00 4.7 C 69 % 1020.8 hPa 0.0 l/m 23.2 km/h (4 Bft) W-NW -0.4 C 0.3 C
23.01.2003 15:00 4.3 C 76 % 1021.6 hPa 0.0 l/m 14.3 km/h (3 Bft) W-NW 0.4 C 1.2 C
23.01.2003 16:00 4.4 C 79 % 1022.2 hPa 0.0 l/m 13.3 km/h (3 Bft) W-NW 1.0 C 1.6 C
23.01.2003 17:00 3.8 C 81 % 1023.2 hPa 0.0 l/m 7.5 km/h (2 Bft) W-NW 1.0 C 2.1 C
23.01.2003 18:00 3.6 C 84 % 1023.8 hPa 0.3 l/m 7.1 km/h (2 Bft) W-NW 1.2 C 2.1 C
23.01.2003 19:00 2.9 C 90 % 1024.8 hPa 0.0 l/m 11.8 km/h (2 Bft) W-NW 1.4 C 0.3 C
23.01.2003 20:00 2.7 C 90 % 1024.8 hPa 0.0 l/m 1.3 km/h (1 Bft) W 1.3 C 2.5 C
23.01.2003 21:00 2.6 C 89 % 1025.8 hPa 0.0 l/m 0.4 km/h (0 Bft) W-SW 1.0 C 2.5 C
23.01.2003 22:00 2.6 C 90 % 1026.2 hPa 0.0 l/m 0.3 km/h (0 Bft) - - 1.1 C 2.6 C
23.01.2003 23:00 2.5 C 92 % 1026.8 hPa 0.3 l/m 0.9 km/h (0 Bft) SO 1.4 C 2.3 C
24.01.2003 00:00 2.5 C 94 % 1027.8 hPa 0.0 l/m 2.1 km/h (1 Bft) SO 1.7 C 2.1 C
24.01.2003 01:00 2.6 C 94 % 1028.4 hPa 0.0 l/m 2.3 km/h (1 Bft) O-SO 1.7 C 2.1 C
24.01.2003 02:00 2.3 C 95 % 1028.9 hPa 0.3 l/m 1.1 km/h (1 Bft) O-SO 1.6 C 2.1 C
24.01.2003 03:00 2.1 C 97 % 1029.8 hPa 0.0 l/m 0.4 km/h (0 Bft) SO 1.7 C 2.0 C
24.01.2003 04:00 1.9 C 99 % 1030.3 hPa 0.0 l/m 0.5 km/h (0 Bft) O-SO 1.7 C 1.8 C
24.01.2003 05:00 1.8 C 100 % 1031.0 hPa 0.0 l/m 0.7 km/h (0 Bft) O-SO 1.8 C 1.6 C
24.01.2003 06:00 1.2 C 99 % 1031.3 hPa 0.0 l/m 0.8 km/h (0 Bft) O-SO 0.9 C 1.1 C
24.01.2003 07:00 1.2 C 100 % 1032.1 hPa 0.0 l/m 0.0 km/h (0 Bft) - - 1.2 C 1.2 C
24.01.2003 08:00 1.4 C 100 % 1033.1 hPa 0.0 l/m 0.0 km/h (0 Bft) - - 1.4 C 1.4 C
24.01.2003 09:00 1.9 C 100 % 1033.4 hPa 0.0 l/m 0.0 km/h (0 Bft) - - 1.9 C 1.9 C
24.01.2003 10:00 3.0 C 100 % 1034.1 hPa 0.0 l/m 0.0 km/h (0 Bft) - - 2.9 C 3.0 C
24.01.2003 11:00 3.7 C 91 % 1034.8 hPa 0.0 l/m 0.7 km/h (0 Bft) O-NO 2.4 C 3.6 C
24.01.2003 12:00 4.0 C 77 % 1035.1 hPa 0.0 l/m 0.8 km/h (0 Bft) W-NW 0.4 C 4.0 C
24.01.2003 13:00 3.6 C 78 % 1035.1 hPa 0.0 l/m 1.4 km/h (1 Bft) NW 0.1 C 3.4 C
24.01.2003 14:00 2.9 C 80 % 1035.1 hPa 0.0 l/m 1.7 km/h (1 Bft) N-NO -0.1 C 2.7 C
24.01.2003 15:00 2.7 C 75 % 1035.2 hPa 0.0 l/m 2.1 km/h (1 Bft) N -1.3 C 2.3 C
24.01.2003 16:00 2.2 C 73 % 1036.2 hPa 0.0 l/m 1.8 km/h (1 Bft) N -2.2 C 1.8 C
24.01.2003 17:00 1.6 C 74 % 1036.2 hPa 0.0 l/m 2.7 km/h (1 Bft) O -2.5 C 1.0 C
24.01.2003 18:00 1.5 C 74 % 1037.2 hPa 0.0 l/m 1.2 km/h (1 Bft) NO -2.6 C 1.3 C
24.01.2003 19:00 1.3 C 75 % 1037.2 hPa 0.0 l/m 0.1 km/h (0 Bft) - - -2.7 C 1.3 C
24.01.2003 20:00 1.2 C 75 % 1037.2 hPa 0.0 l/m 0.0 km/h (0 Bft) - - -2.6 C 1.2 C
24.01.2003 21:00 1.1 C 76 % 1037.2 hPa 0.0 l/m 0.3 km/h (0 Bft) O-NO -2.7 C 1.1 C
24.01.2003 22:00 1.1 C 76 % 1037.2 hPa 0.0 l/m 0.1 km/h (0 Bft) - - -2.7 C 1.1 C
24.01.2003 23:00 1.0 C 76 % 1037.2 hPa 0.0 l/m 0.0 km/h (0 Bft) - - -2.7 C 1.0 C
25.01.2003 00:00 0.9 C 77 % 1036.4 hPa 0.0 l/m 1.1 km/h (0 Bft) N-NO -2.6 C 0.7 C
25.01.2003 01:00 0.8 C 77 % 1036.2 hPa 0.0 l/m 5.1 km/h (1 Bft) O-SO -2.8 C -0.5 C
25.01.2003 02:00 0.7 C 76 % 1036.2 hPa 0.0 l/m 9.5 km/h (2 Bft) O -3.1 C -1.8 C
25.01.2003 03:00 0.5 C 76 % 1035.8 hPa 0.0 l/m 13.0 km/h (3 Bft) O-SO -3.2 C -3.2 C
25.01.2003 04:00 0.3 C 78 % 1035.8 hPa 0.0 l/m 11.4 km/h (2 Bft) O-SO -3.2 C -2.9 C
25.01.2003 05:00 0.0 C 79 % 1036.2 hPa 0.0 l/m 9.2 km/h (2 Bft) O-SO -3.3 C -2.6 C
25.01.2003 06:00 0.0 C 79 % 1036.2 hPa 0.0 l/m 1.7 km/h (1 Bft) O-SO -3.2 C -0.4 C
25.01.2003 07:00 0.1 C 79 % 1036.2 hPa 0.0 l/m 0.2 km/h (0 Bft) O -3.1 C 0.1 C
25.01.2003 08:00 0.3 C 78 % 1036.2 hPa 0.0 l/m 0.8 km/h (0 Bft) O-SO -3.0 C 0.1 C
25.01.2003 09:00 0.7 C 77 % 1036.2 hPa 0.0 l/m 1.0 km/h (0 Bft) NO -2.9 C 0.5 C
25.01.2003 10:00 0.9 C 76 % 1036.2 hPa 0.0 l/m 0.2 km/h (0 Bft) O -2.9 C 0.9 C
25.01.2003 11:00 1.2 C 74 % 1036.2 hPa 0.0 l/m 1.0 km/h (0 Bft) O-SO -2.9 C 1.0 C
25.01.2003 12:00 1.5 C 73 % 1035.1 hPa 0.0 l/m 3.0 km/h (1 Bft) SO -2.8 C 0.8 C
25.01.2003 13:00 1.6 C 72 % 1034.5 hPa 0.0 l/m 7.2 km/h (2 Bft) O-SO -2.8 C -0.2 C
25.01.2003 14:00 1.6 C 71 % 1034.1 hPa 0.0 l/m 1.3 km/h (1 Bft) N-NO -3.0 C 1.4 C
25.01.2003 15:00 1.4 C 72 % 1034.1 hPa 0.0 l/m 0.3 km/h (0 Bft) SO -3.0 C 1.4 C
25.01.2003 16:00 1.0 C 73 % 1034.1 hPa 0.0 l/m 0.2 km/h (0 Bft) - - -3.2 C 1.0 C
25.01.2003 17:00 0.7 C 75 % 1034.1 hPa 0.0 l/m 0.3 km/h (0 Bft) O -3.1 C 0.7 C
25.01.2003 18:00 0.6 C 76 % 1034.1 hPa 0.0 l/m 0.0 km/h (0 Bft) - - -3.2 C 0.6 C
25.01.2003 19:00 0.5 C 77 % 1034.1 hPa 0.0 l/m 0.1 km/h (0 Bft) - - -3.1 C 0.5 C
25.01.2003 20:00 0.4 C 77 % 1033.9 hPa 0.0 l/m 0.3 km/h (0 Bft) W-NW -3.1 C 0.4 C
25.01.2003 21:00 0.2 C 77 % 1033.7 hPa 0.0 l/m 0.0 km/h (0 Bft) - - -3.2 C 0.2 C
25.01.2003 22:00 -0.7 C 83 % 1033.5 hPa 0.0 l/m 0.0 km/h (0 Bft) - - -3.2 C -0.7 C
25.01.2003 23:00 -2.0 C 89 % 1033.2 hPa 0.0 l/m 1.4 km/h (1 Bft) SO -3.6 C -2.4 C
26.01.2003 00:00 -2.4 C 93 % 1032.6 hPa 0.0 l/m 2.0 km/h (1 Bft) SO -3.4 C -3.1 C
26.01.2003 01:00 -1.9 C 94 % 1032.9 hPa 0.0 l/m 0.3 km/h (0 Bft) SO -2.7 C -1.9 C
26.01.2003 02:00 -1.5 C 93 % 1032.7 hPa 0.0 l/m 2.2 km/h (1 Bft) SO -2.5 C -2.2 C
26.01.2003 03:00 -1.0 C 90 % 1033.1 hPa 0.0 l/m 0.3 km/h (0 Bft) SO -2.5 C -1.0 C
26.01.2003 04:00 -0.9 C 91 % 1032.0 hPa 0.3 l/m 0.5 km/h (0 Bft) SO -2.1 C -0.9 C
26.01.2003 05:00 -0.9 C 93 % 1032.0 hPa 0.0 l/m 0.6 km/h (0 Bft) W -1.9 C -1.1 C
26.01.2003 06:00 -0.6 C 92 % 1032.0 hPa 0.0 l/m 0.6 km/h (0 Bft) SO -1.7 C -0.7 C
26.01.2003 07:00 -0.4 C 91 % 1032.4 hPa 0.0 l/m 4.2 km/h (1 Bft) SO -1.8 C -1.7 C
26.01.2003 08:00 -0.5 C 92 % 1033.1 hPa 0.3 l/m 1.9 km/h (1 Bft) O-SO -1.7 C -0.9 C
26.01.2003 09:00 -0.0 C 92 % 1033.1 hPa 0.0 l/m 4.9 km/h (1 Bft) SO -1.2 C -1.5 C
26.01.2003 10:00 0.4 C 89 % 1033.1 hPa 0.0 l/m 3.1 km/h (1 Bft) SO -1.1 C -0.3 C
26.01.2003 11:00 1.0 C 86 % 1033.9 hPa 0.0 l/m 1.0 km/h (0 Bft) S-SO -1.0 C 0.9 C
26.01.2003 12:00 1.4 C 85 % 1033.1 hPa 0.0 l/m 1.4 km/h (1 Bft) SO -0.8 C 1.2 C
26.01.2003 13:00 2.0 C 83 % 1033.6 hPa 0.0 l/m 3.2 km/h (1 Bft) O-SO -0.6 C 1.2 C
26.01.2003 14:00 2.9 C 79 % 1033.1 hPa 0.0 l/m 1.8 km/h (1 Bft) SO -0.5 C 2.7 C
26.01.2003 15:00 2.6 C 80 % 1033.1 hPa 0.0 l/m 0.6 km/h (0 Bft) O-SO -0.5 C 2.5 C
26.01.2003 16:00 2.2 C 82 % 1033.1 hPa 0.0 l/m 0.2 km/h (0 Bft) SO -0.6 C 2.2 C
26.01.2003 17:00 1.9 C 83 % 1033.0 hPa 0.0 l/m 0.0 km/h (0 Bft) - - -0.6 C 1.9 C
26.01.2003 18:00 1.6 C 85 % 1032.0 hPa 0.0 l/m 0.0 km/h (0 Bft) - - -0.5 C 1.6 C
26.01.2003 19:00 1.1 C 89 % 1032.4 hPa 0.0 l/m 0.4 km/h (0 Bft) SO -0.6 C 1.1 C
26.01.2003 20:00 0.8 C 91 % 1032.4 hPa 0.0 l/m 2.6 km/h (1 Bft) O-SO -0.5 C 0.1 C
26.01.2003 21:00 0.8 C 91 % 1032.3 hPa 0.0 l/m 2.3 km/h (1 Bft) SO -0.6 C 0.5 C
26.01.2003 22:00 0.9 C 90 % 1032.0 hPa 0.0 l/m 1.3 km/h (1 Bft) SO -0.6 C 0.6 C
26.01.2003 23:00 0.9 C 92 % 1032.2 hPa 0.3 l/m 2.8 km/h (1 Bft) SO -0.3 C 0.2 C
Min-Datum _ 25.01.03 22.01.03 21.01.03 - 20.01.03 - 25.01.03 25.01.03
_ Min-Zeit 23:45 13:54 13:00 - 00:01 - 23:45 04:51
Minimum _ -2.6 C 60 % 997.8 hPa - 0.0 km/h (0 Bft) - -4.0 C -6.0 C
Max-Datum _ 22.01.03 20.01.03 24.01.03 23.01.03 23.01.03 - 22.01.03 22.01.03
_ Max-Zeit 13:54 00:01 22:00 03:07 13:19 - 10:54 14:18
Maximum _ 7.2 C 100 % 1037.2 hPa 1.8 l/m 38.2 km/h
NW (5 Bft)
- 5.6 C 7.1 C
Durchschnitt _ 1.5 C 89 % 1019.3 hPa #9.6 l/m 3.1 km/h (1 Bft) SO -0.2 C 0.8 C

Durchschnitt Minimum Temp.1.1 C
Durchschnitt Maximum Temp.1.8 C
© Kaiko 2003